Time;durP1;ratioP1;P1;durP2;ratioP2;P2;SDS_P1;SDS_P2;PMS_P1;PMS_P2;Temp;Humidity;BMP_temperature;BMP_pressure;BME280_temperature;BME280_humidity;BME280_pressure;Samples;Min_cycle;Max_cycle;Signal;HPM_P1;HPM_P2
2022/04/21 00:00:17;;;;;;;11.55;7.35;;;;;;;9.66;57.62;101351.16;4988318;28;20058;-66
2022/04/21 00:02:43;;;;;;;11.25;7.47;;;;;;;9.67;57.84;101354.56;4987002;28;20390;-66
2022/04/21 00:05:10;;;;;;;8.20;6.82;;;;;;;9.69;57.78;101355.28;4987998;28;20618;-66
2022/04/21 00:07:36;;;;;;;8.90;7.35;;;;;;;9.55;57.83;101346.72;4988182;28;20077;-65
2022/04/21 00:10:04;;;;;;;11.00;7.72;;;;;;;9.54;57.89;101345.06;4988142;28;20390;-66
2022/04/21 00:12:30;;;;;;;9.93;7.83;;;;;;;9.51;57.94;101350.44;4987865;28;20584;-66
2022/04/21 00:14:55;;;;;;;9.18;7.30;;;;;;;9.39;58.63;101346.09;4992510;28;20113;-67
2022/04/21 00:17:20;;;;;;;9.38;7.55;;;;;;;9.37;58.47;101347.97;5006976;28;20034;-66
2022/04/21 00:19:46;;;;;;;11.32;7.55;;;;;;;9.39;58.46;101340.91;5005468;28;20396;-66
2022/04/21 00:24:55;;;;;;;9.23;7.05;;;;;;;9.37;58.03;101345.38;5007473;28;20597;-66
2022/04/21 00:27:20;;;;;;;9.00;7.57;;;;;;;9.31;57.83;101343.22;5007453;28;20513;-66
2022/04/21 00:29:45;;;;;;;9.77;7.53;;;;;;;9.32;58.04;101340.53;4988475;28;20071;-66
2022/04/21 00:32:12;;;;;;;10.30;8.45;;;;;;;9.29;58.14;101334.75;5000949;28;20026;-66
2022/04/21 00:34:37;;;;;;;10.52;7.72;;;;;;;9.24;57.31;101337.63;5007424;28;20358;-66
2022/04/21 00:37:03;;;;;;;8.70;7.38;;;;;;;9.23;58.01;101341.16;5022460;28;20497;-67
2022/04/21 00:39:31;;;;;;;11.07;7.65;;;;;;;9.24;57.48;101336.81;4988791;28;20022;-66
2022/04/21 00:41:59;;;;;;;10.27;7.67;;;;;;;9.23;57.71;101342.91;4983100;28;20061;-66
2022/04/21 00:44:29;;;;;;;9.40;7.60;;;;;;;9.27;57.38;101336.59;4981399;28;20034;-66
2022/04/21 00:46:57;;;;;;;12.25;7.72;;;;;;;9.17;57.70;101340.72;4987250;28;20030;-66
2022/04/21 00:49:25;;;;;;;10.32;7.70;;;;;;;9.17;58.02;101338.97;4987118;28;20072;-66
2022/04/21 00:51:52;;;;;;;10.27;7.95;;;;;;;9.13;58.13;101340.13;4987566;28;20053;-66
2022/04/21 00:54:18;;;;;;;9.77;7.63;;;;;;;9.11;56.80;101341.97;4987073;28;20072;-66
2022/04/21 00:56:44;;;;;;;10.27;7.60;;;;;;;9.08;57.19;101336.19;4985970;28;20402;-66
2022/04/21 00:59:10;;;;;;;11.25;7.78;;;;;;;9.08;57.03;101336.19;4986271;28;20034;-67
2022/04/21 01:04:30;;;;;;;10.38;7.55;;;;;;;9.10;56.77;101339.47;4985192;28;20054;-66
2022/04/21 01:06:57;;;;;;;10.10;7.70;;;;;;;9.03;57.12;101345.06;4987449;28;20080;-66
2022/04/21 01:09:23;;;;;;;10.63;7.63;;;;;;;9.00;58.15;101353.06;4987467;28;20062;-66
2022/04/21 01:11:50;;;;;;;10.63;7.80;;;;;;;8.97;58.14;101350.66;4987336;28;20058;-67
2022/04/21 01:14:16;;;;;;;10.82;7.93;;;;;;;8.91;58.08;101351.06;4984765;28;20026;-66
2022/04/21 01:16:41;;;;;;;9.95;7.72;;;;;;;8.81;57.91;101350.00;5001998;28;20026;-66
2022/04/21 01:19:07;;;;;;;10.23;7.63;;;;;;;8.84;57.69;101343.81;4987484;28;20045;-66
2022/04/21 01:21:32;;;;;;;8.75;7.20;;;;;;;8.88;57.70;101346.06;4986980;28;20391;-66
2022/04/21 01:23:58;;;;;;;8.48;7.47;;;;;;;8.85;57.63;101346.28;5005677;28;20140;-65
2022/04/21 01:26:28;;;;;;;9.93;7.68;;;;;;;8.73;57.13;101347.09;4988825;28;20520;-66
2022/04/21 01:28:54;;;;;;;11.50;7.60;;;;;;;8.78;56.76;101345.06;4986538;28;20034;-66
2022/04/21 01:31:23;;;;;;;9.30;7.63;;;;;;;8.72;57.30;101335.94;4979690;28;20035;-66
2022/04/21 01:33:48;;;;;;;10.80;7.85;;;;;;;8.71;56.67;101338.59;4986711;28;20414;-65
2022/04/21 01:36:14;;;;;;;9.23;7.55;;;;;;;8.68;57.45;101328.47;4986175;28;20496;-66
2022/04/21 01:41:23;;;;;;;9.05;7.32;;;;;;;8.55;57.37;101337.97;4986841;28;20045;-66
2022/04/21 01:43:48;;;;;;;9.13;7.70;;;;;;;8.57;57.56;101330.94;4985639;28;20398;-66
2022/04/21 01:46:14;;;;;;;10.10;7.95;;;;;;;8.52;57.22;101332.06;4986499;28;20105;-66
2022/04/21 01:48:39;;;;;;;10.68;7.97;;;;;;;8.51;57.72;101327.81;4981727;28;20521;-66
2022/04/21 01:51:04;;;;;;;9.95;7.88;;;;;;;8.39;57.77;101327.78;4967087;28;20030;-66
2022/04/21 01:53:30;;;;;;;9.48;7.28;;;;;;;8.37;58.32;101314.97;4974227;28;20026;-66
2022/04/21 01:55:56;;;;;;;9.18;8.00;;;;;;;8.34;58.53;101320.28;4984764;28;20034;-66
2022/04/21 01:58:21;;;;;;;9.00;7.75;;;;;;;8.41;57.87;101326.75;4985996;28;20129;-66
2022/04/21 02:00:47;;;;;;;9.75;7.75;;;;;;;8.34;58.12;101324.63;4986430;28;20031;-67
2022/04/21 02:03:12;;;;;;;9.23;7.70;;;;;;;8.34;58.62;101322.88;4985743;28;20041;-66
2022/04/21 02:05:37;;;;;;;10.65;7.60;;;;;;;8.29;59.02;101311.16;4986683;28;20109;-66
2022/04/21 02:08:03;;;;;;;10.00;7.65;;;;;;;8.28;59.08;101314.69;4985259;28;20121;-66
2022/04/21 02:10:30;;;;;;;10.65;8.10;;;;;;;8.25;58.87;101321.69;4986354;28;20062;-67
2022/04/21 02:12:56;;;;;;;9.75;7.70;;;;;;;8.22;60.10;101331.41;4985685;28;20412;-66
2022/04/21 02:15:23;;;;;;;10.57;8.32;;;;;;;8.22;59.95;101331.41;4986127;28;20066;-66
2022/04/21 02:17:49;;;;;;;10.15;7.95;;;;;;;8.22;59.88;101315.91;4986488;28;20034;-67
2022/04/21 02:20:15;;;;;;;10.32;8.35;;;;;;;8.22;59.70;101315.91;4985995;28;20486;-66
2022/04/21 02:22:41;;;;;;;11.40;7.72;;;;;;;8.20;59.62;101313.44;4993842;28;20451;-66
2022/04/21 02:25:09;;;;;;;9.98;7.90;;;;;;;8.14;60.97;101323.28;4988752;28;20305;-66
2022/04/21 02:27:37;;;;;;;11.33;8.50;;;;;;;8.15;60.48;101314.66;4986072;28;20036;-66
2022/04/21 02:30:04;;;;;;;10.45;8.57;;;;;;;8.11;61.52;101321.75;4986180;28;20492;-67
2022/04/21 02:32:29;;;;;;;10.23;9.05;;;;;;;8.06;61.80;101315.22;4986026;28;20131;-67
2022/04/21 02:34:54;;;;;;;11.55;8.90;;;;;;;8.03;62.36;101317.97;4985953;28;20070;-66
2022/04/21 02:37:24;;;;;;;12.00;9.18;;;;;;;8.02;62.43;101319.72;4985907;28;20504;-66
2022/04/21 02:39:50;;;;;;;11.88;9.75;;;;;;;8.02;62.06;101313.75;4986392;28;20382;-66
2022/04/21 02:42:16;;;;;;;10.85;9.13;;;;;;;8.11;62.73;101318.34;4985618;28;20509;-66
2022/04/21 02:44:42;;;;;;;13.48;9.73;;;;;;;7.93;62.79;101307.41;4985760;28;20030;-67
2022/04/21 02:47:08;;;;;;;13.55;9.52;;;;;;;8.02;63.08;101318.91;4984158;28;20391;-66
2022/04/21 02:49:37;;;;;;;11.07;9.10;;;;;;;8.02;63.99;101311.97;4986299;28;20112;-66
2022/04/21 02:52:09;;;;;;;11.60;9.80;;;;;;;7.92;64.45;101314.34;4984544;28;20034;-67
2022/04/21 02:57:21;;;;;;;11.30;9.25;;;;;;;7.88;63.70;101301.72;4988999;28;20056;-67
2022/04/21 02:59:55;;;;;;;12.18;9.95;;;;;;;7.95;64.14;101314.13;4972890;28;20105;-66
2022/04/21 03:02:22;;;;;;;13.57;9.80;;;;;;;7.79;64.29;101285.03;4983336;28;20462;-66
2022/04/21 03:04:48;;;;;;;11.40;9.52;;;;;;;7.93;64.17;101310.81;4988880;28;20509;-66
2022/04/21 03:07:14;;;;;;;11.20;9.30;;;;;;;7.93;64.76;101310.81;4989104;28;20030;-66
2022/04/21 03:09:40;;;;;;;11.60;9.82;;;;;;;7.90;65.56;101317.94;4989455;28;20073;-65
2022/04/21 03:12:07;;;;;;;11.88;9.52;;;;;;;7.85;65.12;101300.13;4989348;28;20022;-66
2022/04/21 03:14:37;;;;;;;11.85;9.50;;;;;;;7.85;65.17;101305.28;4989137;28;20038;-66
2022/04/21 03:17:06;;;;;;;11.00;9.60;;;;;;;7.82;65.57;101302.91;4989273;28;20050;-66
2022/04/21 03:19:32;;;;;;;11.38;9.20;;;;;;;7.90;65.10;101315.34;4989652;28;20049;-66
2022/04/21 03:24:42;;;;;;;11.32;10.07;;;;;;;7.81;65.16;101293.53;5008162;28;20137;-65
2022/04/21 03:27:08;;;;;;;13.02;10.25;;;;;;;7.85;65.64;101297.53;5023501;28;20124;-66
2022/04/21 03:29:37;;;;;;;13.20;10.27;;;;;;;7.91;65.65;101302.34;5008790;28;20041;-66
2022/04/21 03:32:06;;;;;;;11.50;9.85;;;;;;;7.87;65.73;101311.22;5000730;28;20471;-66
2022/04/21 03:34:32;;;;;;;13.25;9.50;;;;;;;7.90;65.33;101303.25;4988682;28;20369;-66
2022/04/21 03:36:57;;;;;;;14.35;10.48;;;;;;;7.86;65.75;101304.41;4987314;28;20501;-66
2022/04/21 03:39:22;;;;;;;11.70;9.88;;;;;;;7.89;65.85;101305.94;4988462;28;20040;-66
2022/04/21 03:41:55;;;;;;;12.27;10.27;;;;;;;7.77;65.93;101299.78;4988809;28;20358;-66
2022/04/21 03:44:21;;;;;;;12.63;10.35;;;;;;;7.77;65.74;101304.94;4988456;28;20034;-66
2022/04/21 03:46:46;;;;;;;11.40;9.95;;;;;;;7.71;66.38;101301.00;4988033;28;20026;-66
2022/04/21 03:49:12;;;;;;;12.45;10.35;;;;;;;7.70;66.25;101308.84;4986920;28;20022;-66
2022/04/21 03:51:37;;;;;;;12.68;10.60;;;;;;;7.73;66.90;101311.22;4987252;28;20031;-66
2022/04/21 03:54:04;;;;;;;11.32;9.98;;;;;;;7.71;66.12;101308.75;4987334;28;20022;-66
2022/04/21 03:56:29;;;;;;;15.25;10.32;;;;;;;7.64;66.42;101314.38;4987269;28;20030;-66
2022/04/21 03:58:55;;;;;;;12.85;11.05;;;;;;;7.49;67.23;101312.72;4984478;28;20030;-66
2022/04/21 04:01:20;;;;;;;12.50;10.15;;;;;;;7.53;67.48;101306.47;4987549;28;20064;-66
2022/04/21 04:03:45;;;;;;;14.73;11.07;;;;;;;7.41;67.54;101308.88;4987056;28;20598;-66
2022/04/21 04:11:40;;;;;;;12.88;11.15;;;;;;;7.19;69.54;101308.50;4986225;28;20069;-66
2022/04/21 04:14:06;;;;;;;12.32;10.68;;;;;;;7.24;68.91;101316.81;4988034;28;20030;-66
2022/04/21 04:16:35;;;;;;;11.70;10.50;;;;;;;7.21;69.06;101311.81;4987242;28;20386;-66
2022/04/21 04:19:05;;;;;;;15.52;10.90;;;;;;;7.14;70.37;101324.25;4987744;28;20049;-66
2022/04/21 04:21:31;;;;;;;12.30;10.75;;;;;;;7.11;69.28;101318.44;4987443;28;20054;-66
2022/04/21 04:23:57;;;;;;;13.82;11.55;;;;;;;7.10;69.75;101329.66;4987969;28;20054;-66
2022/04/21 04:26:23;;;;;;;13.07;11.25;;;;;;;7.11;70.07;101315.84;4987565;28;20030;-66
2022/04/21 04:28:49;;;;;;;14.35;11.27;;;;;;;7.12;70.77;101325.28;4987932;28;20026;-66
2022/04/21 04:31:15;;;;;;;12.77;11.05;;;;;;;6.96;70.88;101311.63;4985182;28;20503;-66
2022/04/21 04:33:40;;;;;;;13.45;11.35;;;;;;;7.00;71.34;101326.00;4979164;28;20117;-66
2022/04/21 04:36:06;;;;;;;15.00;11.38;;;;;;;6.92;71.26;101316.09;4985622;28;20113;-66
2022/04/21 04:38:31;;;;;;;14.00;11.10;;;;;;;6.90;70.96;101321.38;4985679;28;20030;-66
2022/04/21 04:42:15;;;;;;;13.68;11.45;;;;;;;6.95;71.49;101315.94;4984026;28;20023;-66
2022/04/21 04:43:41;;;;;;;15.13;11.75;;;;;;;6.90;71.08;101326.53;4986460;28;20070;-66
2022/04/21 04:48:51;;;;;;;13.77;11.48;;;;;;;6.78;72.21;101314.34;4982818;28;20041;-66
2022/04/21 04:51:17;;;;;;;13.80;11.77;;;;;;;6.83;71.99;101322.66;4986131;28;20023;-66
2022/04/21 04:53:42;;;;;;;14.50;11.18;;;;;;;6.74;72.41;101328.31;4984935;28;20030;-67
2022/04/21 04:56:08;;;;;;;13.13;10.70;;;;;;;6.75;73.09;101335.13;4986129;28;20018;-67
2022/04/21 04:58:33;;;;;;;12.82;10.80;;;;;;;6.78;72.27;101324.66;4987324;28;20153;-65
2022/04/21 05:00:59;;;;;;;13.90;11.65;;;;;;;6.83;72.53;101317.50;4987745;28;20026;-66
2022/04/21 05:03:25;;;;;;;13.60;10.70;;;;;;;6.79;73.29;101313.41;4987310;28;20479;-65
2022/04/21 05:05:51;;;;;;;13.93;10.98;;;;;;;6.84;72.27;101308.84;4987546;28;20045;-67
2022/04/21 05:08:16;;;;;;;16.65;11.30;;;;;;;6.87;72.73;101328.44;4986637;28;20038;-66
2022/04/21 05:10:42;;;;;;;14.63;11.15;;;;;;;6.89;72.24;101324.88;4969090;28;20045;-65
2022/04/21 05:13:07;;;;;;;13.82;11.13;;;;;;;6.89;72.09;101327.44;4986398;28;20034;-65
2022/04/21 05:15:33;;;;;;;13.77;10.57;;;;;;;6.92;72.47;101327.25;4987353;28;20030;-65
2022/04/21 05:17:58;;;;;;;12.77;11.48;;;;;;;6.93;72.58;101325.50;4986933;28;20034;-65
2022/04/21 05:20:24;;;;;;;13.20;11.35;;;;;;;6.95;72.12;101328.84;4986970;28;20379;-65
2022/04/21 05:22:55;;;;;;;15.18;11.77;;;;;;;6.88;72.93;101312.91;4994766;28;20036;-65
2022/04/21 05:25:21;;;;;;;14.98;11.05;;;;;;;6.88;73.09;101325.78;5006408;28;20057;-65
2022/04/21 05:27:46;;;;;;;14.65;11.07;;;;;;;6.93;73.25;101318.59;5006792;28;20484;-66
2022/04/21 05:32:58;;;;;;;13.50;11.05;;;;;;;6.96;72.97;101316.78;4986714;28;20104;-66
2022/04/21 05:35:24;;;;;;;14.88;10.70;;;;;;;7.02;72.95;101311.25;4985716;28;20042;-65
2022/04/21 05:37:49;;;;;;;12.35;10.88;;;;;;;7.01;72.81;101304.44;4985311;28;20038;-65
2022/04/21 05:40:15;;;;;;;15.43;11.43;;;;;;;7.01;72.88;101319.91;4985385;28;20543;-66
2022/04/21 05:42:45;;;;;;;13.30;11.60;;;;;;;7.03;73.33;101316.31;4985494;28;20022;-66
2022/04/21 05:45:12;;;;;;;12.60;10.95;;;;;;;7.06;73.17;101317.91;4986378;28;20446;-66
2022/04/21 05:47:40;;;;;;;13.23;10.80;;;;;;;7.13;72.66;101327.75;4981679;28;20521;-66
2022/04/21 05:50:06;;;;;;;13.50;10.70;;;;;;;7.19;72.30;101318.81;4980430;28;20030;-66
2022/04/21 05:52:32;;;;;;;12.45;10.10;;;;;;;7.23;71.98;101320.31;4997521;28;20035;-65
2022/04/21 05:54:58;;;;;;;13.63;10.90;;;;;;;7.25;72.77;101318.47;4984587;28;20034;-65
2022/04/21 05:57:23;;;;;;;12.13;10.00;;;;;;;7.29;71.86;101309.63;5001580;28;20375;-65
2022/04/21 05:59:48;;;;;;;12.23;9.93;;;;;;;7.32;72.14;101314.56;4981033;28;20045;-66
2022/04/21 06:02:14;;;;;;;12.45;10.85;;;;;;;7.41;72.30;101319.19;4982313;28;20030;-65
2022/04/21 06:04:39;;;;;;;15.07;10.73;;;;;;;7.39;72.24;101305.53;4984858;28;20057;-66
2022/04/21 06:07:05;;;;;;;15.15;10.60;;;;;;;7.51;71.55;101316.03;4985338;28;20050;-66
2022/04/21 06:09:30;;;;;;;11.80;10.00;;;;;;;7.53;71.47;101306.47;4983343;28;20034;-66
2022/04/21 06:11:55;;;;;;;12.43;10.35;;;;;;;7.62;71.25;101313.63;4985258;28;20037;-66
2022/04/21 06:14:21;;;;;;;12.55;10.02;;;;;;;7.67;71.44;101319.34;4985854;28;20420;-65
2022/04/21 06:16:46;;;;;;;11.20;10.00;;;;;;;7.77;71.39;101317.88;4986576;28;20505;-65
2022/04/21 06:19:11;;;;;;;12.60;9.80;;;;;;;7.80;71.75;101309.94;4985131;28;20034;-66
2022/04/21 06:21:36;;;;;;;11.85;10.60;;;;;;;7.89;71.38;101306.78;4985254;28;20370;-66
2022/04/21 06:24:02;;;;;;;12.07;9.95;;;;;;;7.97;71.10;101317.47;5005623;28;20084;-67
2022/04/21 06:26:27;;;;;;;12.82;9.23;;;;;;;8.02;69.60;101308.56;5021185;28;20390;-67
2022/04/21 06:28:58;;;;;;;12.98;9.77;;;;;;;8.10;69.48;101311.53;5006056;28;20501;-67
2022/04/21 06:31:23;;;;;;;12.10;9.80;;;;;;;8.18;70.33;101309.28;4989945;28;20058;-67
2022/04/21 06:33:49;;;;;;;12.02;9.00;;;;;;;8.22;69.11;101310.75;4989398;28;20077;-67
2022/04/21 06:36:14;;;;;;;11.73;8.98;;;;;;;8.27;70.02;101303.53;4989703;28;20053;-67
2022/04/21 06:38:39;;;;;;;10.52;8.52;;;;;;;8.37;69.09;101304.63;4990310;28;20068;-66
2022/04/21 06:41:04;;;;;;;13.52;9.05;;;;;;;8.43;68.71;101309.41;4989956;28;20038;-67
2022/04/21 06:48:58;;;;;;;10.30;8.32;;;;;;;8.70;67.96;101303.34;4988515;28;20079;-67
2022/04/21 06:51:25;;;;;;;10.63;8.48;;;;;;;8.72;67.47;101293.72;4984105;28;20390;-66
2022/04/21 06:53:51;;;;;;;10.30;8.40;;;;;;;8.86;67.54;101301.38;4976153;28;20501;-67
2022/04/21 06:56:16;;;;;;;10.63;8.65;;;;;;;8.98;66.74;101310.09;4988401;28;20057;-67
2022/04/21 06:58:42;;;;;;;12.35;8.32;;;;;;;9.07;67.28;101313.84;5004019;28;20038;-67
2022/04/21 07:01:07;;;;;;;11.80;8.88;;;;;;;9.05;67.27;101306.16;4990063;28;20393;-66
2022/04/21 07:03:35;;;;;;;11.50;8.02;;;;;;;9.14;66.82;101304.72;4989347;28;20493;-66
2022/04/21 07:06:00;;;;;;;10.68;8.43;;;;;;;9.28;67.16;101309.75;4989823;28;20351;-67
2022/04/21 07:08:26;;;;;;;10.23;8.27;;;;;;;9.38;66.25;101308.22;4988811;28;20500;-67
2022/04/21 07:10:51;;;;;;;12.07;8.50;;;;;;;9.43;65.95;101313.91;4989627;28;20030;-67
2022/04/21 07:13:16;;;;;;;9.18;8.10;;;;;;;9.47;65.54;101305.00;4988001;28;20026;-67
2022/04/21 07:15:42;;;;;;;9.57;7.68;;;;;;;9.46;65.04;101305.94;4989594;28;20034;-67
2022/04/21 07:18:08;;;;;;;10.90;8.40;;;;;;;9.54;65.00;101314.00;4989039;28;20036;-67
2022/04/21 07:20:34;;;;;;;11.23;8.07;;;;;;;9.63;65.34;101303.91;4988450;28;20026;-67
2022/04/21 07:23:00;;;;;;;9.77;7.63;;;;;;;9.68;65.00;101309.59;5000317;28;20501;-67
2022/04/21 07:25:25;;;;;;;9.25;8.07;;;;;;;9.82;66.06;101317.25;5005562;28;20065;-67
2022/04/21 07:27:51;;;;;;;10.25;8.00;;;;;;;9.91;65.37;101319.16;4989422;28;20034;-67
2022/04/21 07:30:16;;;;;;;10.55;9.05;;;;;;;9.94;64.13;101310.38;4989071;28;20037;-67
2022/04/21 07:32:44;;;;;;;10.13;7.50;;;;;;;10.06;64.29;101318.09;4988742;28;20034;-67
2022/04/21 07:35:10;;;;;;;11.43;7.40;;;;;;;10.07;63.25;101321.50;4988949;28;20092;-67
2022/04/21 07:37:37;;;;;;;9.45;7.15;;;;;;;10.16;63.45;101325.22;4988281;28;20769;-67
2022/04/21 07:40:04;;;;;;;9.68;7.00;;;;;;;10.16;62.92;101330.41;4987558;28;20061;-67
2022/04/21 07:42:30;;;;;;;9.07;6.40;;;;;;;10.27;63.73;101333.91;4986625;28;20509;-67
2022/04/21 07:44:57;;;;;;;10.75;7.65;;;;;;;10.36;63.30;101332.41;4988810;28;20052;-67
2022/04/21 07:47:22;;;;;;;8.90;6.85;;;;;;;10.44;62.64;101334.44;4988433;28;20049;-67
2022/04/21 07:49:48;;;;;;;8.60;7.10;;;;;;;10.51;63.08;101331.28;4987634;28;20356;-66
2022/04/21 07:55:21;;;;;;;8.38;7.10;;;;;;;10.73;62.55;101329.72;4987567;28;20152;-66
2022/04/21 07:57:47;;;;;;;11.05;7.45;;;;;;;10.76;62.14;101329.47;4985300;28;20088;-66
2022/04/21 08:00:15;;;;;;;10.95;7.70;;;;;;;10.80;61.60;101320.53;4985703;28;20323;-67
2022/04/21 08:02:42;;;;;;;10.63;7.73;;;;;;;11.01;61.84;101323.25;4984141;28;20022;-67
2022/04/21 08:05:09;;;;;;;10.95;7.32;;;;;;;11.05;61.64;101320.31;4988040;28;20376;-67
2022/04/21 08:07:35;;;;;;;9.93;7.55;;;;;;;11.09;61.71;101321.75;4987605;28;20034;-67
2022/04/21 08:10:05;;;;;;;10.60;7.80;;;;;;;11.11;60.97;101325.06;4988437;28;20065;-67
2022/04/21 08:12:46;;;;;;;10.57;7.50;;;;;;;11.20;60.79;101333.09;4985080;28;20130;-66
2022/04/21 08:15:32;;;;;;;10.93;7.30;;;;;;;11.27;61.02;101327.31;4987303;28;20102;-66
2022/04/21 08:18:00;;;;;;;10.45;7.40;;;;;;;11.36;60.79;101323.19;4987852;28;20058;-66
2022/04/21 08:20:27;;;;;;;8.45;7.13;;;;;;;11.38;59.56;101331.69;4988138;28;20037;-67
2022/04/21 08:22:53;;;;;;;8.73;6.78;;;;;;;11.46;58.38;101331.91;4998066;28;20547;-67
2022/04/21 08:33:32;;;;;;;6.88;5.45;;;;;;;11.75;55.29;101318.44;4987926;28;20481;-66
2022/04/21 08:35:58;;;;;;;9.35;5.43;;;;;;;11.81;55.38;101323.13;4987563;28;20035;-66
2022/04/21 08:38:28;;;;;;;8.30;5.28;;;;;;;11.94;54.35;101316.09;4987495;28;20057;-66
2022/04/21 08:40:55;;;;;;;7.53;4.78;;;;;;;12.00;55.36;101323.38;4987502;28;20030;-67
2022/04/21 08:43:22;;;;;;;7.10;4.60;;;;;;;12.07;52.34;101318.53;4987382;28;20150;-67
2022/04/21 08:45:49;;;;;;;6.30;4.50;;;;;;;12.05;51.15;101326.44;4987424;28;20470;-66
2022/04/21 08:48:17;;;;;;;7.00;4.60;;;;;;;12.17;52.03;101325.47;4985963;28;20061;-67
2022/04/21 08:50:42;;;;;;;7.00;4.13;;;;;;;12.27;51.56;101304.72;4987548;28;20148;-67
2022/04/21 08:53:10;;;;;;;6.03;4.07;;;;;;;12.34;48.65;101315.47;4987085;28;20564;-67
2022/04/21 08:55:35;;;;;;;7.97;4.32;;;;;;;12.33;49.28;101319.00;4987548;28;20110;-66
2022/04/21 08:58:01;;;;;;;6.60;4.30;;;;;;;12.45;49.27;101312.84;4987855;28;20109;-67
2022/04/21 09:00:27;;;;;;;6.57;4.22;;;;;;;12.54;50.13;101317.25;4987433;28;20092;-66
2022/04/21 09:02:53;;;;;;;6.38;4.00;;;;;;;12.56;49.18;101309.31;4987149;28;20233;-66
2022/04/21 09:05:22;;;;;;;6.43;3.70;;;;;;;12.62;48.53;101312.28;4986962;28;20446;-67
2022/04/21 09:07:52;;;;;;;6.72;4.07;;;;;;;12.69;49.49;101310.81;4987273;28;20037;-67
2022/04/21 09:10:19;;;;;;;6.65;3.70;;;;;;;12.74;48.15;101302.63;4987193;28;20027;-66
2022/04/21 09:12:50;;;;;;;7.22;4.10;;;;;;;12.79;48.96;101320.44;4981995;28;20043;-67
2022/04/21 09:15:17;;;;;;;5.40;3.47;;;;;;;12.74;46.90;101303.44;4984694;28;20030;-66
2022/04/21 09:17:53;;;;;;;6.22;3.42;;;;;;;12.86;47.02;101321.59;4985762;28;20035;-66
2022/04/21 09:20:22;;;;;;;8.95;3.72;;;;;;;12.80;47.60;101302.13;4986955;28;20030;-67
2022/04/21 09:22:53;;;;;;;8.38;3.80;;;;;;;13.02;47.75;101308.97;4996017;28;20030;-67
2022/04/21 09:25:27;;;;;;;7.97;4.15;;;;;;;13.11;47.65;101305.56;5006497;28;20048;-66
2022/04/21 09:27:53;;;;;;;7.72;4.43;;;;;;;13.16;49.74;101297.38;4991551;28;20022;-66
2022/04/21 09:30:19;;;;;;;5.63;3.85;;;;;;;13.20;47.45;101294.38;4986636;28;20026;-67
2022/04/21 09:32:55;;;;;;;6.13;3.90;;;;;;;13.31;47.91;101300.50;4987001;28;20037;-67
2022/04/21 09:35:22;;;;;;;5.03;3.58;;;;;;;13.26;45.97;101293.06;4986644;28;20034;-67
2022/04/21 09:37:52;;;;;;;6.47;3.53;;;;;;;13.33;46.37;101298.56;4986689;28;20030;-67
2022/04/21 09:40:19;;;;;;;6.30;4.00;;;;;;;13.35;46.27;101291.44;4986651;28;20038;-67
2022/04/21 09:42:54;;;;;;;7.43;4.33;;;;;;;13.51;47.30;101291.75;4969342;28;20034;-66
2022/04/21 09:48:26;;;;;;;4.90;3.60;;;;;;;13.55;46.73;101295.75;4986162;28;20542;-66
2022/04/21 09:50:53;;;;;;;6.30;3.75;;;;;;;13.52;45.47;101291.63;4986596;28;20042;-67
2022/04/21 09:53:23;;;;;;;7.47;4.07;;;;;;;13.63;46.75;101290.69;4986730;28;20065;-66
2022/04/21 09:56:05;;;;;;;6.45;4.68;;;;;;;13.52;46.71;101282.97;4986723;28;20061;-67
2022/04/21 09:58:36;;;;;;;8.48;4.45;;;;;;;13.58;46.92;101272.03;4985780;28;20363;-66
2022/04/21 10:01:03;;;;;;;7.03;4.30;;;;;;;13.60;46.73;101280.56;4986766;28;20022;-67
2022/04/21 10:03:33;;;;;;;6.47;3.70;;;;;;;13.59;47.20;101271.09;4985724;28;20026;-66
2022/04/21 10:05:58;;;;;;;7.05;4.25;;;;;;;13.58;44.88;101272.03;4986035;28;20036;-66
2022/04/21 10:08:24;;;;;;;7.53;4.22;;;;;;;13.69;45.13;101269.31;4978260;28;20043;-66
2022/04/21 10:10:53;;;;;;;5.40;3.80;;;;;;;13.75;45.88;101258.34;4981982;28;20042;-66
2022/04/21 10:13:19;;;;;;;6.13;4.10;;;;;;;13.94;45.72;101267.16;4986279;28;20026;-67
2022/04/21 10:15:45;;;;;;;7.22;3.83;;;;;;;13.85;44.58;101268.78;4985939;28;20026;-66
2022/04/21 10:18:16;;;;;;;8.32;4.50;;;;;;;14.01;46.84;101266.47;4980304;28;20775;-67
2022/04/21 10:20:44;;;;;;;6.60;3.88;;;;;;;14.03;44.36;101259.31;4981675;28;20058;-66
2022/04/21 10:23:15;;;;;;;6.88;4.10;;;;;;;14.00;43.57;101266.63;4991256;28;20481;-68
2022/04/21 10:25:42;;;;;;;6.28;3.72;;;;;;;14.04;43.90;101257.53;5003887;28;20072;-67
2022/04/21 10:28:37;;;;;;;4.85;3.10;;;;;;;14.07;43.56;101246.84;4989088;28;20026;-66
2022/04/21 10:31:30;;;;;;;6.22;3.67;;;;;;;14.13;43.54;101261.94;4985311;28;20092;-66
2022/04/21 10:34:00;;;;;;;7.03;3.85;;;;;;;14.20;44.24;101242.16;4984902;28;20030;-66
2022/04/21 10:36:33;;;;;;;7.55;3.90;;;;;;;14.43;44.91;101239.25;4985717;28;20034;-67
2022/04/21 10:39:17;;;;;;;6.93;3.33;;;;;;;14.46;43.90;101231.16;4986625;28;20029;-66
2022/04/21 10:41:43;;;;;;;6.18;2.67;;;;;;;14.51;41.36;101234.22;4985693;28;20529;-67
2022/04/21 10:44:15;;;;;;;4.55;2.90;;;;;;;14.61;41.42;101240.22;4985824;28;20026;-67
2022/04/21 10:46:41;;;;;;;5.05;2.63;;;;;;;14.55;39.53;101230.34;4984621;28;20048;-67
2022/04/21 10:49:07;;;;;;;4.50;2.75;;;;;;;14.55;40.88;101231.16;4985951;28;20030;-67
2022/04/21 10:57:12;;;;;;;5.07;2.90;;;;;;;14.55;41.55;101225.09;4986075;28;20022;-67
2022/04/21 10:57:47;;;;;;;4.35;3.13;;;;;;;14.68;42.19;101220.44;4983491;28;20038;-67
2022/04/21 11:00:29;;;;;;;5.10;2.60;;;;;;;14.73;40.77;101215.56;4983366;28;20034;-66
2022/04/21 11:03:08;;;;;;;4.97;2.47;;;;;;;14.88;41.46;101215.94;4983273;28;20035;-67
2022/04/21 11:05:38;;;;;;;4.85;2.80;;;;;;;14.87;39.74;101209.09;4954655;28;20537;-67
2022/04/21 11:08:10;;;;;;;4.95;2.00;;;;;;;14.91;38.35;101215.66;4954566;28;20483;-67
2022/04/21 11:10:38;;;;;;;6.00;2.58;;;;;;;14.91;37.21;101220.03;4963626;28;20042;-67
2022/04/21 11:13:09;;;;;;;7.45;2.47;;;;;;;15.05;39.29;101222.19;4964105;28;20057;-66
2022/04/21 11:15:44;;;;;;;10.60;2.58;;;;;;;15.15;39.25;101212.53;4947345;28;20053;-67
2022/04/21 11:18:17;;;;;;;4.95;2.50;;;;;;;15.30;39.05;101205.81;4966975;28;20034;-67
2022/04/21 11:20:45;;;;;;;7.18;3.10;;;;;;;15.26;38.78;101204.50;4965808;28;20124;-67
2022/04/21 11:23:21;;;;;;;5.40;3.00;;;;;;;15.37;39.64;101206.91;4972078;28;20030;-67
2022/04/21 11:25:47;;;;;;;7.45;3.20;;;;;;;15.44;37.97;101206.31;4986749;28;20137;-67
2022/04/21 11:28:13;;;;;;;5.95;3.30;;;;;;;15.46;40.50;101201.75;4969938;28;20513;-66
2022/04/21 11:30:39;;;;;;;6.13;3.58;;;;;;;15.46;39.86;101199.13;4969433;28;20407;-66
2022/04/21 11:33:10;;;;;;;4.88;3.17;;;;;;;15.50;40.78;101196.09;4986599;28;20042;-66
2022/04/21 11:35:35;;;;;;;5.50;3.08;;;;;;;15.50;39.81;101197.88;4988011;28;20030;-67
2022/04/21 11:38:01;;;;;;;4.75;2.92;;;;;;;15.53;39.87;101189.72;4988432;28;20026;-67
2022/04/21 11:40:44;;;;;;;6.35;3.00;;;;;;;15.69;41.38;101195.16;4988715;28;20081;-67
2022/04/21 11:43:17;;;;;;;5.07;3.30;;;;;;;15.74;39.95;101192.91;4988876;28;20022;-67
2022/04/21 11:45:57;;;;;;;7.15;2.65;;;;;;;15.71;37.68;101182.72;4989265;28;20113;-67
2022/04/21 11:48:31;;;;;;;4.35;2.85;;;;;;;15.66;36.88;101179.78;4988407;28;20045;-67
2022/04/21 11:50:57;;;;;;;7.03;3.20;;;;;;;15.78;38.22;101165.50;4988513;28;20070;-67
2022/04/21 11:53:22;;;;;;;5.70;2.80;;;;;;;15.86;38.29;101176.00;4988215;28;20052;-66
2022/04/21 11:55:50;;;;;;;4.95;2.58;;;;;;;15.77;36.06;101171.69;4988977;28;20026;-66
2022/04/21 11:58:26;;;;;;;4.60;2.65;;;;;;;15.77;36.66;101171.69;4983578;28;20109;-67
2022/04/21 12:06:29;;;;;;;6.60;3.53;;;;;;;15.56;36.73;101163.31;4988357;28;20053;-67
2022/04/21 12:08:56;;;;;;;6.03;3.40;;;;;;;15.52;37.95;101167.19;5002736;28;20026;-66
2022/04/21 12:11:22;;;;;;;5.47;3.13;;;;;;;15.54;38.69;101166.06;4984134;28;20031;-67
2022/04/21 12:13:49;;;;;;;4.88;3.28;;;;;;;15.62;39.39;101149.63;4998508;28;20030;-66
2022/04/21 12:16:34;;;;;;;6.25;3.78;;;;;;;15.77;40.17;101170.84;4986472;28;20109;-66
2022/04/21 12:19:09;;;;;;;13.55;3.95;;;;;;;15.87;40.97;101156.72;4986973;28;20026;-66